sensor_id;sensor_type;location;lat;lon;timestamp;P1;durP1;ratioP1;P2;durP2;ratioP2
15155;SDS011;7678;50.058;8.306;2023-06-24T00:00:00;4.80;;;4.40;;
15155;SDS011;7678;50.058;8.306;2023-06-24T00:02:33;6.73;;;4.77;;
15155;SDS011;7678;50.058;8.306;2023-06-24T00:05:03;5.13;;;4.63;;
15155;SDS011;7678;50.058;8.306;2023-06-24T00:07:34;6.10;;;4.37;;
15155;SDS011;7678;50.058;8.306;2023-06-24T00:10:10;5.33;;;4.83;;
15155;SDS011;7678;50.058;8.306;2023-06-24T00:12:39;7.87;;;5.00;;
15155;SDS011;7678;50.058;8.306;2023-06-24T00:15:08;5.20;;;4.70;;
15155;SDS011;7678;50.058;8.306;2023-06-24T00:17:37;5.30;;;4.30;;
15155;SDS011;7678;50.058;8.306;2023-06-24T00:20:06;5.30;;;4.80;;
15155;SDS011;7678;50.058;8.306;2023-06-24T00:22:38;7.53;;;5.23;;
15155;SDS011;7678;50.058;8.306;2023-06-24T00:25:10;4.73;;;4.23;;
15155;SDS011;7678;50.058;8.306;2023-06-24T00:27:38;5.03;;;4.50;;
15155;SDS011;7678;50.058;8.306;2023-06-24T00:30:06;6.33;;;4.63;;
15155;SDS011;7678;50.058;8.306;2023-06-24T00:32:35;5.90;;;4.70;;
15155;SDS011;7678;50.058;8.306;2023-06-24T00:35:03;5.43;;;4.93;;
15155;SDS011;7678;50.058;8.306;2023-06-24T00:37:32;8.83;;;4.90;;
15155;SDS011;7678;50.058;8.306;2023-06-24T00:40:02;5.63;;;5.07;;
15155;SDS011;7678;50.058;8.306;2023-06-24T00:42:31;6.57;;;5.20;;
15155;SDS011;7678;50.058;8.306;2023-06-24T00:44:59;5.60;;;5.10;;
15155;SDS011;7678;50.058;8.306;2023-06-24T00:47:30;5.90;;;5.23;;
15155;SDS011;7678;50.058;8.306;2023-06-24T00:50:01;7.20;;;5.13;;
15155;SDS011;7678;50.058;8.306;2023-06-24T00:52:29;5.47;;;4.97;;
15155;SDS011;7678;50.058;8.306;2023-06-24T00:54:59;6.07;;;5.47;;
15155;SDS011;7678;50.058;8.306;2023-06-24T00:57:30;6.70;;;5.20;;
15155;SDS011;7678;50.058;8.306;2023-06-24T00:59:59;6.40;;;5.00;;
15155;SDS011;7678;50.058;8.306;2023-06-24T01:02:28;5.50;;;4.87;;
15155;SDS011;7678;50.058;8.306;2023-06-24T01:04:59;6.37;;;5.00;;
15155;SDS011;7678;50.058;8.306;2023-06-24T01:07:27;5.60;;;5.10;;
15155;SDS011;7678;50.058;8.306;2023-06-24T01:09:56;5.17;;;4.60;;
15155;SDS011;7678;50.058;8.306;2023-06-24T01:12:25;4.97;;;4.53;;
15155;SDS011;7678;50.058;8.306;2023-06-24T01:14:54;6.23;;;5.17;;
15155;SDS011;7678;50.058;8.306;2023-06-24T01:17:23;5.97;;;5.37;;
15155;SDS011;7678;50.058;8.306;2023-06-24T01:20:00;9.67;;;5.70;;
15155;SDS011;7678;50.058;8.306;2023-06-24T01:22:37;5.67;;;4.87;;
15155;SDS011;7678;50.058;8.306;2023-06-24T01:25:30;5.47;;;4.97;;
15155;SDS011;7678;50.058;8.306;2023-06-24T01:28:16;6.23;;;5.20;;
15155;SDS011;7678;50.058;8.306;2023-06-24T01:30:57;4.90;;;4.37;;
15155;SDS011;7678;50.058;8.306;2023-06-24T01:33:41;8.00;;;4.77;;
15155;SDS011;7678;50.058;8.306;2023-06-24T01:36:17;5.30;;;4.80;;
15155;SDS011;7678;50.058;8.306;2023-06-24T01:38:48;5.37;;;4.80;;
15155;SDS011;7678;50.058;8.306;2023-06-24T01:41:21;6.87;;;5.23;;
15155;SDS011;7678;50.058;8.306;2023-06-24T01:43:52;5.73;;;5.23;;
15155;SDS011;7678;50.058;8.306;2023-06-24T01:46:22;5.20;;;4.70;;
15155;SDS011;7678;50.058;8.306;2023-06-24T01:48:55;7.63;;;5.53;;
15155;SDS011;7678;50.058;8.306;2023-06-24T01:51:27;5.97;;;5.37;;
15155;SDS011;7678;50.058;8.306;2023-06-24T01:53:58;5.73;;;5.23;;
15155;SDS011;7678;50.058;8.306;2023-06-24T01:56:29;5.57;;;5.03;;
15155;SDS011;7678;50.058;8.306;2023-06-24T01:59:00;5.60;;;4.47;;
15155;SDS011;7678;50.058;8.306;2023-06-24T02:01:31;6.47;;;5.00;;
15155;SDS011;7678;50.058;8.306;2023-06-24T02:04:02;6.40;;;5.07;;
15155;SDS011;7678;50.058;8.306;2023-06-24T02:06:31;7.20;;;5.23;;
15155;SDS011;7678;50.058;8.306;2023-06-24T02:09:00;5.47;;;4.97;;
15155;SDS011;7678;50.058;8.306;2023-06-24T02:11:30;5.73;;;5.23;;
15155;SDS011;7678;50.058;8.306;2023-06-24T02:14:01;6.23;;;4.60;;
15155;SDS011;7678;50.058;8.306;2023-06-24T02:16:31;5.87;;;5.27;;
15155;SDS011;7678;50.058;8.306;2023-06-24T02:19:02;6.17;;;4.83;;
15155;SDS011;7678;50.058;8.306;2023-06-24T02:21:33;5.43;;;4.90;;
15155;SDS011;7678;50.058;8.306;2023-06-24T02:24:02;5.50;;;5.10;;
15155;SDS011;7678;50.058;8.306;2023-06-24T02:26:32;5.77;;;5.07;;
15155;SDS011;7678;50.058;8.306;2023-06-24T02:29:01;7.07;;;5.40;;
15155;SDS011;7678;50.058;8.306;2023-06-24T02:31:31;6.17;;;5.57;;
15155;SDS011;7678;50.058;8.306;2023-06-24T02:33:59;5.80;;;5.30;;
15155;SDS011;7678;50.058;8.306;2023-06-24T02:36:28;13.53;;;9.73;;
15155;SDS011;7678;50.058;8.306;2023-06-24T02:38:56;9.67;;;8.13;;
15155;SDS011;7678;50.058;8.306;2023-06-24T02:41:25;6.50;;;5.70;;
15155;SDS011;7678;50.058;8.306;2023-06-24T02:43:53;7.13;;;6.43;;
15155;SDS011;7678;50.058;8.306;2023-06-24T02:46:21;6.87;;;6.13;;
15155;SDS011;7678;50.058;8.306;2023-06-24T02:48:50;6.10;;;5.50;;
15155;SDS011;7678;50.058;8.306;2023-06-24T02:51:19;6.93;;;6.23;;
15155;SDS011;7678;50.058;8.306;2023-06-24T02:53:49;6.77;;;6.07;;
15155;SDS011;7678;50.058;8.306;2023-06-24T02:56:18;8.07;;;6.13;;
15155;SDS011;7678;50.058;8.306;2023-06-24T02:58:48;7.93;;;6.40;;
15155;SDS011;7678;50.058;8.306;2023-06-24T03:01:19;7.30;;;6.60;;
15155;SDS011;7678;50.058;8.306;2023-06-24T03:03:51;6.57;;;5.97;;
15155;SDS011;7678;50.058;8.306;2023-06-24T03:06:21;6.33;;;5.73;;
15155;SDS011;7678;50.058;8.306;2023-06-24T03:08:51;6.10;;;5.50;;
15155;SDS011;7678;50.058;8.306;2023-06-24T03:11:19;6.23;;;5.63;;
15155;SDS011;7678;50.058;8.306;2023-06-24T03:13:47;6.87;;;5.80;;
15155;SDS011;7678;50.058;8.306;2023-06-24T03:16:16;8.33;;;5.37;;
15155;SDS011;7678;50.058;8.306;2023-06-24T03:18:44;6.37;;;5.77;;
15155;SDS011;7678;50.058;8.306;2023-06-24T03:21:12;6.60;;;6.00;;
15155;SDS011;7678;50.058;8.306;2023-06-24T03:23:40;7.13;;;5.70;;
15155;SDS011;7678;50.058;8.306;2023-06-24T03:26:10;5.80;;;5.20;;
15155;SDS011;7678;50.058;8.306;2023-06-24T03:28:38;6.30;;;5.27;;
15155;SDS011;7678;50.058;8.306;2023-06-24T03:31:06;5.80;;;5.30;;
15155;SDS011;7678;50.058;8.306;2023-06-24T03:33:34;7.37;;;5.17;;
15155;SDS011;7678;50.058;8.306;2023-06-24T03:36:02;6.53;;;4.93;;
15155;SDS011;7678;50.058;8.306;2023-06-24T03:38:31;6.50;;;5.43;;
15155;SDS011;7678;50.058;8.306;2023-06-24T03:40:59;7.03;;;5.40;;
15155;SDS011;7678;50.058;8.306;2023-06-24T03:43:28;6.13;;;5.63;;
15155;SDS011;7678;50.058;8.306;2023-06-24T03:45:57;7.87;;;5.20;;
15155;SDS011;7678;50.058;8.306;2023-06-24T03:48:26;6.53;;;5.93;;
15155;SDS011;7678;50.058;8.306;2023-06-24T03:50:54;6.53;;;5.93;;
15155;SDS011;7678;50.058;8.306;2023-06-24T03:53:23;5.67;;;5.17;;
15155;SDS011;7678;50.058;8.306;2023-06-24T03:55:51;8.20;;;6.00;;
15155;SDS011;7678;50.058;8.306;2023-06-24T03:58:19;6.27;;;5.67;;
15155;SDS011;7678;50.058;8.306;2023-06-24T04:00:48;6.90;;;5.27;;
15155;SDS011;7678;50.058;8.306;2023-06-24T04:03:16;6.67;;;5.67;;
15155;SDS011;7678;50.058;8.306;2023-06-24T04:05:45;6.67;;;5.40;;
15155;SDS011;7678;50.058;8.306;2023-06-24T04:08:13;6.77;;;6.13;;
15155;SDS011;7678;50.058;8.306;2023-06-24T04:10:41;7.20;;;5.87;;
15155;SDS011;7678;50.058;8.306;2023-06-24T04:13:10;6.83;;;5.83;;
15155;SDS011;7678;50.058;8.306;2023-06-24T04:15:39;6.13;;;5.20;;
15155;SDS011;7678;50.058;8.306;2023-06-24T04:18:09;5.70;;;5.10;;
15155;SDS011;7678;50.058;8.306;2023-06-24T04:20:38;6.47;;;4.93;;
15155;SDS011;7678;50.058;8.306;2023-06-24T04:23:06;6.00;;;4.87;;
15155;SDS011;7678;50.058;8.306;2023-06-24T04:25:36;5.87;;;5.10;;
15155;SDS011;7678;50.058;8.306;2023-06-24T04:28:04;5.30;;;4.80;;
15155;SDS011;7678;50.058;8.306;2023-06-24T04:30:32;6.40;;;5.63;;
15155;SDS011;7678;50.058;8.306;2023-06-24T04:33:01;6.17;;;5.57;;
15155;SDS011;7678;50.058;8.306;2023-06-24T04:35:31;6.03;;;5.40;;
15155;SDS011;7678;50.058;8.306;2023-06-24T04:38:00;5.57;;;4.67;;
15155;SDS011;7678;50.058;8.306;2023-06-24T04:40:28;6.20;;;5.57;;
15155;SDS011;7678;50.058;8.306;2023-06-24T04:42:57;6.03;;;5.13;;
15155;SDS011;7678;50.058;8.306;2023-06-24T04:45:25;7.00;;;4.87;;
15155;SDS011;7678;50.058;8.306;2023-06-24T04:47:53;6.10;;;5.50;;
15155;SDS011;7678;50.058;8.306;2023-06-24T04:50:21;6.00;;;5.37;;
15155;SDS011;7678;50.058;8.306;2023-06-24T04:52:53;6.07;;;5.23;;
15155;SDS011;7678;50.058;8.306;2023-06-24T04:55:23;5.40;;;4.90;;
15155;SDS011;7678;50.058;8.306;2023-06-24T04:57:51;6.00;;;5.40;;
15155;SDS011;7678;50.058;8.306;2023-06-24T05:00:19;6.00;;;5.50;;
15155;SDS011;7678;50.058;8.306;2023-06-24T05:02:49;5.50;;;5.00;;
15155;SDS011;7678;50.058;8.306;2023-06-24T05:05:18;6.30;;;5.70;;
15155;SDS011;7678;50.058;8.306;2023-06-24T05:07:48;7.33;;;5.80;;
15155;SDS011;7678;50.058;8.306;2023-06-24T05:10:17;7.20;;;5.40;;
15155;SDS011;7678;50.058;8.306;2023-06-24T05:12:45;6.40;;;5.30;;
15155;SDS011;7678;50.058;8.306;2023-06-24T05:15:13;7.67;;;6.00;;
15155;SDS011;7678;50.058;8.306;2023-06-24T05:17:42;8.30;;;5.83;;
15155;SDS011;7678;50.058;8.306;2023-06-24T05:20:10;6.03;;;5.40;;
15155;SDS011;7678;50.058;8.306;2023-06-24T05:22:39;9.33;;;5.77;;
15155;SDS011;7678;50.058;8.306;2023-06-24T05:25:07;6.60;;;6.00;;
15155;SDS011;7678;50.058;8.306;2023-06-24T05:27:43;8.73;;;6.70;;
15155;SDS011;7678;50.058;8.306;2023-06-24T05:30:11;7.37;;;6.30;;
15155;SDS011;7678;50.058;8.306;2023-06-24T05:32:41;7.93;;;7.07;;
15155;SDS011;7678;50.058;8.306;2023-06-24T05:35:09;6.73;;;6.03;;
15155;SDS011;7678;50.058;8.306;2023-06-24T05:37:37;8.47;;;6.80;;
15155;SDS011;7678;50.058;8.306;2023-06-24T05:40:05;9.17;;;6.83;;
15155;SDS011;7678;50.058;8.306;2023-06-24T05:42:35;10.43;;;7.00;;
15155;SDS011;7678;50.058;8.306;2023-06-24T05:45:08;7.73;;;6.57;;
15155;SDS011;7678;50.058;8.306;2023-06-24T05:47:37;9.63;;;7.20;;
15155;SDS011;7678;50.058;8.306;2023-06-24T05:50:05;9.03;;;7.20;;
15155;SDS011;7678;50.058;8.306;2023-06-24T05:52:34;10.23;;;7.50;;
15155;SDS011;7678;50.058;8.306;2023-06-24T05:55:03;8.10;;;7.27;;
15155;SDS011;7678;50.058;8.306;2023-06-24T05:57:32;8.60;;;7.50;;
15155;SDS011;7678;50.058;8.306;2023-06-24T06:00:00;9.30;;;7.90;;
15155;SDS011;7678;50.058;8.306;2023-06-24T06:02:31;9.50;;;7.80;;
15155;SDS011;7678;50.058;8.306;2023-06-24T06:05:11;10.13;;;8.90;;
15155;SDS011;7678;50.058;8.306;2023-06-24T06:07:40;9.40;;;8.50;;
15155;SDS011;7678;50.058;8.306;2023-06-24T06:10:09;7.83;;;7.03;;
15155;SDS011;7678;50.058;8.306;2023-06-24T06:12:37;9.90;;;8.70;;
15155;SDS011;7678;50.058;8.306;2023-06-24T06:15:05;11.40;;;9.30;;
15155;SDS011;7678;50.058;8.306;2023-06-24T06:17:35;8.07;;;7.27;;
15155;SDS011;7678;50.058;8.306;2023-06-24T06:20:04;10.93;;;9.30;;
15155;SDS011;7678;50.058;8.306;2023-06-24T06:22:33;9.03;;;7.70;;
15155;SDS011;7678;50.058;8.306;2023-06-24T06:25:04;13.60;;;9.40;;
15155;SDS011;7678;50.058;8.306;2023-06-24T06:27:34;13.60;;;9.10;;
15155;SDS011;7678;50.058;8.306;2023-06-24T06:30:03;10.07;;;9.07;;
15155;SDS011;7678;50.058;8.306;2023-06-24T06:32:32;11.00;;;8.77;;
15155;SDS011;7678;50.058;8.306;2023-06-24T06:35:01;10.77;;;8.67;;
15155;SDS011;7678;50.058;8.306;2023-06-24T06:37:30;12.63;;;7.50;;
15155;SDS011;7678;50.058;8.306;2023-06-24T06:39:58;10.67;;;8.73;;
15155;SDS011;7678;50.058;8.306;2023-06-24T06:42:28;11.33;;;8.73;;
15155;SDS011;7678;50.058;8.306;2023-06-24T06:44:57;9.13;;;7.77;;
15155;SDS011;7678;50.058;8.306;2023-06-24T06:47:25;9.90;;;7.97;;
15155;SDS011;7678;50.058;8.306;2023-06-24T06:49:53;9.40;;;8.27;;
15155;SDS011;7678;50.058;8.306;2023-06-24T06:52:23;10.53;;;8.63;;
15155;SDS011;7678;50.058;8.306;2023-06-24T06:54:51;9.67;;;8.13;;
15155;SDS011;7678;50.058;8.306;2023-06-24T06:57:19;10.50;;;7.67;;
15155;SDS011;7678;50.058;8.306;2023-06-24T06:59:47;7.80;;;6.93;;
15155;SDS011;7678;50.058;8.306;2023-06-24T07:02:17;9.57;;;7.80;;
15155;SDS011;7678;50.058;8.306;2023-06-24T07:04:45;8.73;;;7.07;;
15155;SDS011;7678;50.058;8.306;2023-06-24T07:07:16;10.17;;;7.40;;
15155;SDS011;7678;50.058;8.306;2023-06-24T07:09:46;9.30;;;6.80;;
15155;SDS011;7678;50.058;8.306;2023-06-24T07:12:14;9.03;;;6.77;;
15155;SDS011;7678;50.058;8.306;2023-06-24T07:14:43;10.67;;;7.40;;
15155;SDS011;7678;50.058;8.306;2023-06-24T07:17:11;8.07;;;6.20;;
15155;SDS011;7678;50.058;8.306;2023-06-24T07:19:39;9.90;;;7.07;;
15155;SDS011;7678;50.058;8.306;2023-06-24T07:22:07;9.37;;;7.10;;
15155;SDS011;7678;50.058;8.306;2023-06-24T07:24:35;7.83;;;6.17;;
15155;SDS011;7678;50.058;8.306;2023-06-24T07:27:06;9.20;;;6.20;;
15155;SDS011;7678;50.058;8.306;2023-06-24T07:29:36;8.03;;;6.70;;
15155;SDS011;7678;50.058;8.306;2023-06-24T07:32:04;10.43;;;6.77;;
15155;SDS011;7678;50.058;8.306;2023-06-24T07:34:34;8.60;;;6.20;;
15155;SDS011;7678;50.058;8.306;2023-06-24T07:37:03;6.27;;;5.67;;
15155;SDS011;7678;50.058;8.306;2023-06-24T07:39:49;6.70;;;5.90;;
15155;SDS011;7678;50.058;8.306;2023-06-24T07:42:18;6.77;;;5.30;;
15155;SDS011;7678;50.058;8.306;2023-06-24T07:44:47;7.40;;;5.73;;
15155;SDS011;7678;50.058;8.306;2023-06-24T07:47:16;6.57;;;5.30;;
15155;SDS011;7678;50.058;8.306;2023-06-24T07:49:44;6.13;;;5.57;;
15155;SDS011;7678;50.058;8.306;2023-06-24T07:52:13;7.17;;;5.70;;
15155;SDS011;7678;50.058;8.306;2023-06-24T07:54:41;6.93;;;5.87;;
15155;SDS011;7678;50.058;8.306;2023-06-24T07:57:10;7.83;;;6.47;;
15155;SDS011;7678;50.058;8.306;2023-06-24T07:59:39;7.53;;;6.00;;
15155;SDS011;7678;50.058;8.306;2023-06-24T08:02:08;6.40;;;5.40;;
15155;SDS011;7678;50.058;8.306;2023-06-24T08:04:36;8.20;;;6.27;;
15155;SDS011;7678;50.058;8.306;2023-06-24T08:07:05;6.40;;;5.77;;
15155;SDS011;7678;50.058;8.306;2023-06-24T08:09:33;6.33;;;5.73;;
15155;SDS011;7678;50.058;8.306;2023-06-24T08:12:01;6.63;;;5.97;;
15155;SDS011;7678;50.058;8.306;2023-06-24T08:14:30;7.20;;;5.57;;
15155;SDS011;7678;50.058;8.306;2023-06-24T08:17:01;6.63;;;5.57;;
15155;SDS011;7678;50.058;8.306;2023-06-24T08:19:30;7.97;;;6.27;;
15155;SDS011;7678;50.058;8.306;2023-06-24T08:21:58;6.83;;;5.33;;
15155;SDS011;7678;50.058;8.306;2023-06-24T08:24:25;6.30;;;5.40;;
15155;SDS011;7678;50.058;8.306;2023-06-24T08:26:53;6.73;;;5.80;;
15155;SDS011;7678;50.058;8.306;2023-06-24T08:29:21;6.47;;;5.80;;
15155;SDS011;7678;50.058;8.306;2023-06-24T08:31:50;7.73;;;5.83;;
15155;SDS011;7678;50.058;8.306;2023-06-24T08:34:19;6.33;;;5.73;;
15155;SDS011;7678;50.058;8.306;2023-06-24T08:36:50;9.67;;;6.23;;
15155;SDS011;7678;50.058;8.306;2023-06-24T08:39:18;6.23;;;5.00;;
15155;SDS011;7678;50.058;8.306;2023-06-24T08:41:47;7.10;;;5.23;;
15155;SDS011;7678;50.058;8.306;2023-06-24T08:44:15;7.60;;;5.30;;
15155;SDS011;7678;50.058;8.306;2023-06-24T08:46:43;7.50;;;5.70;;
15155;SDS011;7678;50.058;8.306;2023-06-24T08:49:14;6.00;;;5.20;;
15155;SDS011;7678;50.058;8.306;2023-06-24T08:51:54;5.87;;;4.90;;
15155;SDS011;7678;50.058;8.306;2023-06-24T08:54:30;9.17;;;5.13;;
15155;SDS011;7678;50.058;8.306;2023-06-24T08:57:02;8.17;;;5.50;;
15155;SDS011;7678;50.058;8.306;2023-06-24T08:59:33;8.17;;;5.57;;
15155;SDS011;7678;50.058;8.306;2023-06-24T09:02:02;8.23;;;5.00;;
15155;SDS011;7678;50.058;8.306;2023-06-24T09:04:32;6.20;;;4.80;;
15155;SDS011;7678;50.058;8.306;2023-06-24T09:07:00;5.90;;;5.37;;
15155;SDS011;7678;50.058;8.306;2023-06-24T09:09:33;8.47;;;6.17;;
15155;SDS011;7678;50.058;8.306;2023-06-24T09:12:10;5.70;;;5.13;;
15155;SDS011;7678;50.058;8.306;2023-06-24T09:14:41;8.07;;;4.90;;
15155;SDS011;7678;50.058;8.306;2023-06-24T09:17:15;5.70;;;4.10;;
15155;SDS011;7678;50.058;8.306;2023-06-24T09:19:46;6.97;;;4.50;;
15155;SDS011;7678;50.058;8.306;2023-06-24T09:22:14;5.93;;;4.60;;
15155;SDS011;7678;50.058;8.306;2023-06-24T09:24:44;5.03;;;4.53;;
15155;SDS011;7678;50.058;8.306;2023-06-24T09:27:14;6.63;;;5.40;;
15155;SDS011;7678;50.058;8.306;2023-06-24T09:29:44;7.03;;;5.23;;
15155;SDS011;7678;50.058;8.306;2023-06-24T09:32:13;7.90;;;5.53;;
15155;SDS011;7678;50.058;8.306;2023-06-24T09:34:43;7.93;;;4.90;;
15155;SDS011;7678;50.058;8.306;2023-06-24T09:37:13;6.63;;;4.80;;
15155;SDS011;7678;50.058;8.306;2023-06-24T09:39:50;10.07;;;5.60;;
15155;SDS011;7678;50.058;8.306;2023-06-24T09:42:20;6.73;;;5.30;;
15155;SDS011;7678;50.058;8.306;2023-06-24T09:44:53;5.60;;;4.90;;
15155;SDS011;7678;50.058;8.306;2023-06-24T09:47:24;8.17;;;6.10;;
15155;SDS011;7678;50.058;8.306;2023-06-24T09:49:53;7.10;;;5.87;;
15155;SDS011;7678;50.058;8.306;2023-06-24T09:52:25;8.80;;;5.83;;
15155;SDS011;7678;50.058;8.306;2023-06-24T09:54:56;5.83;;;5.23;;
15155;SDS011;7678;50.058;8.306;2023-06-24T09:57:30;7.93;;;5.63;;
15155;SDS011;7678;50.058;8.306;2023-06-24T10:00:00;6.87;;;5.67;;
15155;SDS011;7678;50.058;8.306;2023-06-24T10:02:30;7.37;;;5.70;;
15155;SDS011;7678;50.058;8.306;2023-06-24T10:05:08;5.73;;;5.07;;
15155;SDS011;7678;50.058;8.306;2023-06-24T10:07:39;6.07;;;5.27;;
15155;SDS011;7678;50.058;8.306;2023-06-24T10:10:08;8.17;;;6.03;;
15155;SDS011;7678;50.058;8.306;2023-06-24T10:12:38;10.33;;;6.33;;
15155;SDS011;7678;50.058;8.306;2023-06-24T10:15:08;6.87;;;5.30;;
15155;SDS011;7678;50.058;8.306;2023-06-24T10:17:37;8.37;;;5.40;;
15155;SDS011;7678;50.058;8.306;2023-06-24T10:20:06;9.07;;;6.07;;
15155;SDS011;7678;50.058;8.306;2023-06-24T10:22:35;8.60;;;6.30;;
15155;SDS011;7678;50.058;8.306;2023-06-24T10:25:06;8.80;;;6.70;;
15155;SDS011;7678;50.058;8.306;2023-06-24T10:27:38;6.57;;;5.60;;
15155;SDS011;7678;50.058;8.306;2023-06-24T10:30:16;6.87;;;5.97;;
15155;SDS011;7678;50.058;8.306;2023-06-24T10:32:45;7.40;;;6.10;;
15155;SDS011;7678;50.058;8.306;2023-06-24T10:35:25;8.40;;;5.07;;
15155;SDS011;7678;50.058;8.306;2023-06-24T10:37:57;5.37;;;4.73;;
15155;SDS011;7678;50.058;8.306;2023-06-24T10:40:37;8.37;;;4.40;;
15155;SDS011;7678;50.058;8.306;2023-06-24T10:43:25;5.80;;;4.30;;
15155;SDS011;7678;50.058;8.306;2023-06-24T10:45:56;4.23;;;3.83;;
15155;SDS011;7678;50.058;8.306;2023-06-24T10:48:26;5.80;;;4.63;;
15155;SDS011;7678;50.058;8.306;2023-06-24T10:50:54;6.60;;;4.27;;
15155;SDS011;7678;50.058;8.306;2023-06-24T10:53:22;3.83;;;3.43;;
15155;SDS011;7678;50.058;8.306;2023-06-24T10:55:52;5.53;;;3.60;;
15155;SDS011;7678;50.058;8.306;2023-06-24T10:58:24;7.67;;;5.03;;
15155;SDS011;7678;50.058;8.306;2023-06-24T11:01:06;5.67;;;4.27;;
15155;SDS011;7678;50.058;8.306;2023-06-24T11:03:36;6.30;;;4.13;;
15155;SDS011;7678;50.058;8.306;2023-06-24T11:06:08;5.13;;;4.13;;
15155;SDS011;7678;50.058;8.306;2023-06-24T11:08:42;6.00;;;3.83;;
15155;SDS011;7678;50.058;8.306;2023-06-24T11:11:19;5.83;;;4.20;;
15155;SDS011;7678;50.058;8.306;2023-06-24T11:13:49;5.30;;;4.80;;
15155;SDS011;7678;50.058;8.306;2023-06-24T11:16:20;5.07;;;4.07;;
15155;SDS011;7678;50.058;8.306;2023-06-24T11:18:49;5.37;;;3.60;;
15155;SDS011;7678;50.058;8.306;2023-06-24T11:21:18;4.00;;;3.38;;
15155;SDS011;7678;50.058;8.306;2023-06-24T11:23:50;5.97;;;3.95;;
15155;SDS011;7678;50.058;8.306;2023-06-24T11:26:30;4.28;;;3.55;;
15155;SDS011;7678;50.058;8.306;2023-06-24T11:28:58;4.07;;;3.70;;
15155;SDS011;7678;50.058;8.306;2023-06-24T11:31:27;3.95;;;3.55;;
15155;SDS011;7678;50.058;8.306;2023-06-24T11:33:59;6.55;;;3.72;;
15155;SDS011;7678;50.058;8.306;2023-06-24T11:36:28;6.68;;;3.70;;
15155;SDS011;7678;50.058;8.306;2023-06-24T11:42:05;5.75;;;3.58;;
15155;SDS011;7678;50.058;8.306;2023-06-24T11:44:34;4.18;;;3.78;;
15155;SDS011;7678;50.058;8.306;2023-06-24T11:47:04;4.00;;;3.20;;
15155;SDS011;7678;50.058;8.306;2023-06-24T11:52:27;3.78;;;3.38;;
15155;SDS011;7678;50.058;8.306;2023-06-24T11:55:04;4.03;;;3.42;;
15155;SDS011;7678;50.058;8.306;2023-06-24T11:57:54;5.20;;;3.22;;
15155;SDS011;7678;50.058;8.306;2023-06-24T12:00:23;6.90;;;3.83;;
15155;SDS011;7678;50.058;8.306;2023-06-24T12:02:53;4.25;;;3.47;;
15155;SDS011;7678;50.058;8.306;2023-06-24T12:05:23;4.13;;;3.72;;
15155;SDS011;7678;50.058;8.306;2023-06-24T12:07:55;4.20;;;3.13;;
15155;SDS011;7678;50.058;8.306;2023-06-24T12:10:26;3.78;;;3.38;;
15155;SDS011;7678;50.058;8.306;2023-06-24T12:12:57;5.85;;;3.83;;
15155;SDS011;7678;50.058;8.306;2023-06-24T12:15:25;4.28;;;3.83;;
15155;SDS011;7678;50.058;8.306;2023-06-24T12:17:54;7.10;;;3.92;;
15155;SDS011;7678;50.058;8.306;2023-06-24T12:20:24;3.80;;;3.40;;
15155;SDS011;7678;50.058;8.306;2023-06-24T12:22:58;4.18;;;3.75;;
15155;SDS011;7678;50.058;8.306;2023-06-24T12:25:28;4.65;;;3.65;;
15155;SDS011;7678;50.058;8.306;2023-06-24T12:27:58;3.38;;;3.03;;
15155;SDS011;7678;50.058;8.306;2023-06-24T12:30:27;3.90;;;3.50;;
15155;SDS011;7678;50.058;8.306;2023-06-24T12:32:57;3.25;;;2.95;;
15155;SDS011;7678;50.058;8.306;2023-06-24T12:35:25;4.13;;;3.45;;
15155;SDS011;7678;50.058;8.306;2023-06-24T12:37:55;4.05;;;3.30;;
15155;SDS011;7678;50.058;8.306;2023-06-24T12:40:23;3.85;;;3.25;;
15155;SDS011;7678;50.058;8.306;2023-06-24T12:42:54;5.43;;;3.28;;
15155;SDS011;7678;50.058;8.306;2023-06-24T12:45:25;4.18;;;3.50;;
15155;SDS011;7678;50.058;8.306;2023-06-24T12:47:54;3.75;;;3.30;;
15155;SDS011;7678;50.058;8.306;2023-06-24T12:50:27;4.28;;;3.85;;
15155;SDS011;7678;50.058;8.306;2023-06-24T12:52:58;6.03;;;3.95;;
15155;SDS011;7678;50.058;8.306;2023-06-24T12:55:28;4.05;;;3.70;;
15155;SDS011;7678;50.058;8.306;2023-06-24T12:57:59;4.07;;;3.45;;
15155;SDS011;7678;50.058;8.306;2023-06-24T13:00:29;5.72;;;3.45;;
15155;SDS011;7678;50.058;8.306;2023-06-24T13:03:02;4.53;;;3.72;;
15155;SDS011;7678;50.058;8.306;2023-06-24T13:05:32;4.20;;;3.80;;
15155;SDS011;7678;50.058;8.306;2023-06-24T13:08:00;4.40;;;3.67;;
15155;SDS011;7678;50.058;8.306;2023-06-24T13:10:33;3.77;;;3.37;;
15155;SDS011;7678;50.058;8.306;2023-06-24T13:13:03;3.60;;;3.30;;
15155;SDS011;7678;50.058;8.306;2023-06-24T13:15:46;5.90;;;3.77;;
15155;SDS011;7678;50.058;8.306;2023-06-24T13:18:15;3.88;;;3.58;;
15155;SDS011;7678;50.058;8.306;2023-06-24T13:20:44;5.05;;;3.75;;
15155;SDS011;7678;50.058;8.306;2023-06-24T13:23:13;4.80;;;3.47;;
15155;SDS011;7678;50.058;8.306;2023-06-24T13:25:42;3.97;;;3.35;;
15155;SDS011;7678;50.058;8.306;2023-06-24T13:28:11;5.47;;;3.67;;
15155;SDS011;7678;50.058;8.306;2023-06-24T13:30:39;4.28;;;3.70;;
15155;SDS011;7678;50.058;8.306;2023-06-24T13:33:09;4.70;;;3.67;;
15155;SDS011;7678;50.058;8.306;2023-06-24T13:35:38;4.20;;;3.65;;
15155;SDS011;7678;50.058;8.306;2023-06-24T13:38:10;4.15;;;3.60;;
15155;SDS011;7678;50.058;8.306;2023-06-24T13:40:41;5.85;;;3.85;;
15155;SDS011;7678;50.058;8.306;2023-06-24T13:43:10;3.78;;;3.40;;
15155;SDS011;7678;50.058;8.306;2023-06-24T13:45:42;4.28;;;3.60;;
15155;SDS011;7678;50.058;8.306;2023-06-24T13:48:13;4.20;;;3.80;;
15155;SDS011;7678;50.058;8.306;2023-06-24T13:50:42;3.55;;;3.25;;
15155;SDS011;7678;50.058;8.306;2023-06-24T13:53:10;4.78;;;3.53;;
15155;SDS011;7678;50.058;8.306;2023-06-24T13:55:40;4.38;;;3.60;;
15155;SDS011;7678;50.058;8.306;2023-06-24T13:58:09;5.53;;;3.30;;
15155;SDS011;7678;50.058;8.306;2023-06-24T14:00:37;4.15;;;3.70;;
15155;SDS011;7678;50.058;8.306;2023-06-24T15:53:10;4.75;;;4.20;;
15155;SDS011;7678;50.058;8.306;2023-06-24T15:55:39;4.35;;;3.95;;
15155;SDS011;7678;50.058;8.306;2023-06-24T15:58:07;3.92;;;3.58;;
15155;SDS011;7678;50.058;8.306;2023-06-24T16:00:35;3.95;;;3.55;;
15155;SDS011;7678;50.058;8.306;2023-06-24T16:03:03;3.97;;;3.63;;
15155;SDS011;7678;50.058;8.306;2023-06-24T16:05:32;6.25;;;3.45;;
15155;SDS011;7678;50.058;8.306;2023-06-24T16:08:03;7.15;;;3.75;;
15155;SDS011;7678;50.058;8.306;2023-06-24T16:10:33;5.35;;;3.85;;
15155;SDS011;7678;50.058;8.306;2023-06-24T16:13:03;5.13;;;4.15;;
15155;SDS011;7678;50.058;8.306;2023-06-24T16:15:32;4.50;;;4.10;;
15155;SDS011;7678;50.058;8.306;2023-06-24T16:18:00;4.22;;;3.83;;
15155;SDS011;7678;50.058;8.306;2023-06-24T16:20:28;4.05;;;3.67;;
15155;SDS011;7678;50.058;8.306;2023-06-24T16:22:57;4.70;;;4.28;;
15155;SDS011;7678;50.058;8.306;2023-06-24T16:25:28;4.80;;;3.97;;
15155;SDS011;7678;50.058;8.306;2023-06-24T16:27:59;5.70;;;4.00;;
15155;SDS011;7678;50.058;8.306;2023-06-24T16:30:27;4.30;;;3.90;;
15155;SDS011;7678;50.058;8.306;2023-06-24T16:32:55;5.60;;;4.70;;
15155;SDS011;7678;50.058;8.306;2023-06-24T16:35:24;4.03;;;3.63;;
15155;SDS011;7678;50.058;8.306;2023-06-24T16:37:52;3.63;;;3.30;;
15155;SDS011;7678;50.058;8.306;2023-06-24T16:40:21;4.28;;;3.88;;
15155;SDS011;7678;50.058;8.306;2023-06-24T16:42:49;3.67;;;3.28;;
15155;SDS011;7678;50.058;8.306;2023-06-24T16:45:19;4.40;;;4.00;;
15155;SDS011;7678;50.058;8.306;2023-06-24T16:47:47;4.70;;;4.15;;
15155;SDS011;7678;50.058;8.306;2023-06-24T16:50:15;4.40;;;4.00;;
15155;SDS011;7678;50.058;8.306;2023-06-24T16:52:43;3.90;;;3.55;;
15155;SDS011;7678;50.058;8.306;2023-06-24T16:55:11;3.80;;;3.50;;
15155;SDS011;7678;50.058;8.306;2023-06-24T16:57:40;6.70;;;4.20;;
15155;SDS011;7678;50.058;8.306;2023-06-24T17:00:09;5.80;;;3.60;;
15155;SDS011;7678;50.058;8.306;2023-06-24T17:02:39;3.60;;;3.30;;
15155;SDS011;7678;50.058;8.306;2023-06-24T17:05:10;4.75;;;3.90;;
15155;SDS011;7678;50.058;8.306;2023-06-24T17:07:39;5.65;;;4.05;;
15155;SDS011;7678;50.058;8.306;2023-06-24T17:10:08;5.22;;;3.67;;
15155;SDS011;7678;50.058;8.306;2023-06-24T17:12:36;5.88;;;3.83;;